Time;durP1;ratioP1;P1;durP2;ratioP2;P2;SDS_P1;SDS_P2;PMS_P1;PMS_P2;Temp;Humidity;BMP_temperature;BMP_pressure;BME280_temperature;BME280_humidity;BME280_pressure;Samples;Min_cycle;Max_cycle;Signal;HPM_P1;HPM_P2
2024/01/11 00:02:03;;;;;;;19.55;10.98;;;;;;;-4.30;55.79;95886.75;5027891;28;20033;-85
2024/01/11 00:04:29;;;;;;;16.70;10.48;;;;;;;-4.33;55.52;95892.78;5028736;28;20022;-88
2024/01/11 00:06:55;;;;;;;15.75;10.82;;;;;;;-4.42;55.73;95882.03;5027991;28;20727;-85
2024/01/11 00:09:20;;;;;;;17.27;10.23;;;;;;;-4.36;55.62;95882.66;5028778;28;20473;-83
2024/01/11 00:11:46;;;;;;;21.65;11.32;;;;;;;-4.40;55.56;95882.50;5028474;28;20032;-87
2024/01/11 00:14:11;;;;;;;19.08;11.10;;;;;;;-4.41;55.88;95883.63;5029173;28;20508;-85
2024/01/11 00:16:36;;;;;;;22.25;11.13;;;;;;;-4.40;55.67;95879.03;5029054;28;20041;-85
2024/01/11 00:19:02;;;;;;;18.35;10.60;;;;;;;-4.40;56.01;95879.03;5028954;28;20053;-85
2024/01/11 00:21:27;;;;;;;16.10;10.20;;;;;;;-4.47;55.72;95879.53;5029235;28;20510;-86
2024/01/11 00:23:53;;;;;;;23.67;11.60;;;;;;;-4.49;55.97;95871.00;5028802;28;20083;-86
2024/01/11 00:26:18;;;;;;;18.40;9.70;;;;;;;-4.47;55.83;95871.47;5028990;28;20113;-85
2024/01/11 00:28:44;;;;;;;17.02;11.32;;;;;;;-4.47;55.70;95878.72;5028446;28;20104;-84
2024/01/11 00:31:10;;;;;;;17.73;11.38;;;;;;;-4.55;56.32;95872.25;5027358;28;20029;-86
2024/01/11 00:33:35;;;;;;;22.27;10.93;;;;;;;-4.57;56.37;95880.63;5027744;28;20041;-85
2024/01/11 00:36:01;;;;;;;17.55;9.80;;;;;;;-4.62;55.82;95862.00;5027373;28;20029;-85
2024/01/11 00:38:26;;;;;;;16.10;9.95;;;;;;;-4.57;55.68;95866.44;5028111;28;20025;-85
2024/01/11 00:40:52;;;;;;;17.95;9.85;;;;;;;-4.63;55.88;95854.28;5026827;28;20036;-85
2024/01/11 00:43:17;;;;;;;19.20;9.80;;;;;;;-4.63;55.81;95857.75;5028109;28;20040;-84
2024/01/11 00:45:45;;;;;;;17.42;10.45;;;;;;;-4.66;56.02;95866.44;5026859;28;20037;-84
2024/01/11 00:48:11;;;;;;;18.92;12.20;;;;;;;-4.69;55.85;95867.06;5027088;28;20029;-84
2024/01/11 00:50:36;;;;;;;17.77;10.32;;;;;;;-4.74;56.37;95861.06;5026822;28;20028;-85
2024/01/11 00:53:02;;;;;;;15.40;10.13;;;;;;;-4.77;56.17;95862.47;5026529;28;20057;-85
2024/01/11 00:55:28;;;;;;;19.40;10.57;;;;;;;-4.71;55.85;95861.22;5026526;28;20403;-84
2024/01/11 00:57:54;;;;;;;23.05;11.35;;;;;;;-4.74;56.00;95856.50;5026409;28;20566;-87
2024/01/11 01:00:19;;;;;;;21.65;11.23;;;;;;;-4.69;55.73;95856.34;5026791;28;20044;-85
2024/01/11 01:02:44;;;;;;;21.50;10.82;;;;;;;-4.69;56.14;95856.34;5026582;28;20033;-84
2024/01/11 01:05:10;;;;;;;19.95;11.57;;;;;;;-4.84;56.39;95843.41;5026498;28;20065;-85
2024/01/11 01:07:35;;;;;;;20.38;10.82;;;;;;;-4.81;56.28;95854.28;5025229;28;20112;-86
2024/01/11 01:10:01;;;;;;;18.10;10.23;;;;;;;-4.78;56.19;95850.19;5025028;28;20030;-85
2024/01/11 01:12:28;;;;;;;24.35;10.93;;;;;;;-4.84;56.17;95854.91;5026751;28;20034;-85
2024/01/11 01:14:54;;;;;;;17.45;9.70;;;;;;;-4.91;56.33;95851.91;5026399;28;20044;-85
2024/01/11 01:17:19;;;;;;;21.40;10.38;;;;;;;-4.91;56.13;95853.81;5025911;28;20071;-86
2024/01/11 01:19:45;;;;;;;19.85;10.90;;;;;;;-4.92;56.25;95852.25;5026905;28;20064;-86
2024/01/11 01:22:10;;;;;;;16.65;10.23;;;;;;;-4.91;56.22;95857.28;5028314;28;20296;-87
2024/01/11 01:24:36;;;;;;;19.55;11.38;;;;;;;-4.94;56.09;95849.06;5039757;28;20041;-86
2024/01/11 01:27:01;;;;;;;17.90;10.32;;;;;;;-4.94;56.25;95846.38;5041009;28;20087;-84
2024/01/11 01:29:27;;;;;;;17.40;11.40;;;;;;;-4.94;56.42;95846.38;5040810;28;20025;-86
2024/01/11 01:31:52;;;;;;;18.35;10.80;;;;;;;-4.99;56.30;95843.84;5043197;28;20021;-84
2024/01/11 01:34:18;;;;;;;19.73;11.27;;;;;;;-5.05;56.39;95843.22;5036034;28;20025;-86
2024/01/11 01:36:44;;;;;;;23.77;11.48;;;;;;;-5.08;56.50;95833.94;5028019;28;20099;-83
2024/01/11 01:39:09;;;;;;;22.48;13.00;;;;;;;-5.12;56.29;95829.50;5027738;28;20108;-85
2024/01/11 01:41:34;;;;;;;15.73;9.93;;;;;;;-5.00;56.20;95840.38;5026420;28;20488;-84
2024/01/11 01:44:00;;;;;;;17.73;11.20;;;;;;;-4.99;56.30;95828.56;5026279;28;20496;-85
2024/01/11 01:46:26;;;;;;;19.47;10.17;;;;;;;-5.09;57.00;95824.31;5025949;28;20032;-86
2024/01/11 01:48:57;;;;;;;25.17;11.73;;;;;;;-5.09;57.08;95818.94;5008676;28;20037;-85
2024/01/11 01:51:23;;;;;;;19.73;10.75;;;;;;;-5.09;56.90;95820.84;5026084;28;20036;-86
2024/01/11 01:53:51;;;;;;;18.43;10.23;;;;;;;-5.12;56.74;95816.09;5025893;28;20749;-87
2024/01/11 01:56:17;;;;;;;19.27;10.07;;;;;;;-5.10;57.07;95821.97;5026333;28;20108;-85
2024/01/11 01:58:43;;;;;;;21.13;11.50;;;;;;;-5.10;56.88;95814.69;5025756;28;20614;-85
2024/01/11 02:01:08;;;;;;;15.45;10.70;;;;;;;-5.12;56.94;95816.09;5025937;28;20560;-85
2024/01/11 02:03:35;;;;;;;18.98;9.85;;;;;;;-5.18;57.13;95803.94;5025479;28;20171;-85
2024/01/11 02:06:00;;;;;;;17.90;9.98;;;;;;;-5.20;57.13;95798.13;5026046;28;20033;-86
2024/01/11 02:08:27;;;;;;;20.20;11.60;;;;;;;-5.21;57.39;95805.38;5028581;28;20029;-85
2024/01/11 02:10:52;;;;;;;22.35;12.52;;;;;;;-5.17;57.38;95806.31;5029628;28;20503;-85
2024/01/11 02:13:18;;;;;;;21.92;11.13;;;;;;;-5.24;57.10;95802.53;5028735;28;20137;-86
2024/01/11 02:15:45;;;;;;;16.90;10.48;;;;;;;-5.20;57.07;95806.97;5028514;28;20406;-86
2024/01/11 02:18:11;;;;;;;21.58;12.13;;;;;;;-5.18;57.08;95802.06;5029866;28;20669;-86
2024/01/11 02:20:36;;;;;;;22.17;12.70;;;;;;;-5.22;57.11;95797.63;5029402;28;20049;-86
2024/01/11 02:23:06;;;;;;;23.87;14.47;;;;;;;-5.22;57.48;95797.63;5029419;28;20029;-86
2024/01/11 02:25:31;;;;;;;29.23;17.13;;;;;;;-5.20;57.84;95803.50;5027755;28;20404;-86
2024/01/11 02:27:57;;;;;;;28.23;16.90;;;;;;;-5.21;57.62;95807.28;5029267;28;20125;-86
2024/01/11 02:30:22;;;;;;;33.50;17.77;;;;;;;-5.28;57.97;95797.00;5029756;28;20041;-86
2024/01/11 02:32:48;;;;;;;39.17;20.27;;;;;;;-5.29;58.04;95800.00;5029420;28;20022;-85
2024/01/11 02:35:17;;;;;;;37.65;18.40;;;;;;;-5.29;57.86;95800.00;5029415;28;20788;-86
2024/01/11 02:37:43;;;;;;;34.17;18.57;;;;;;;-5.32;57.75;95806.78;5027676;28;20569;-85
2024/01/11 02:40:08;;;;;;;31.17;17.80;;;;;;;-5.34;57.31;95801.72;5028153;28;20026;-85
2024/01/11 02:42:35;;;;;;;31.63;15.77;;;;;;;-5.37;57.34;95793.53;5027697;28;20029;-85
2024/01/11 02:45:00;;;;;;;26.03;13.67;;;;;;;-5.32;56.91;95795.28;5029368;28;20052;-85
2024/01/11 02:47:26;;;;;;;32.70;14.73;;;;;;;-5.35;57.06;95797.47;5029373;28;20540;-85
2024/01/11 02:49:51;;;;;;;26.53;15.13;;;;;;;-5.40;57.02;95789.59;5029121;28;20098;-85
2024/01/11 02:52:17;;;;;;;24.35;12.90;;;;;;;-5.37;57.33;95788.97;5028945;28;20416;-84
2024/01/11 02:54:42;;;;;;;20.23;12.43;;;;;;;-5.34;57.13;95792.91;5028779;28;20056;-84
2024/01/11 02:57:08;;;;;;;23.23;14.10;;;;;;;-5.38;57.63;95787.41;5028872;28;20033;-86
2024/01/11 02:59:33;;;;;;;29.27;14.33;;;;;;;-5.36;57.29;95785.19;5028561;28;20049;-86
2024/01/11 03:01:58;;;;;;;21.80;13.17;;;;;;;-5.38;57.60;95787.41;5028836;28;20136;-86
2024/01/11 03:04:24;;;;;;;21.73;12.23;;;;;;;-5.35;57.09;95783.28;5028628;28;20476;-86
2024/01/11 03:06:49;;;;;;;15.00;11.18;;;;;;;-5.38;57.07;95783.94;5029014;28;20074;-86
2024/01/11 03:09:14;;;;;;;22.43;11.40;;;;;;;-5.35;57.18;95780.59;5028604;28;20463;-86
2024/01/11 03:11:40;;;;;;;25.13;11.57;;;;;;;-5.36;57.47;95777.13;5028744;28;20100;-84
2024/01/11 03:14:06;;;;;;;21.33;12.00;;;;;;;-5.37;57.37;95788.19;5028946;28;20353;-86
2024/01/11 03:16:31;;;;;;;23.43;12.43;;;;;;;-5.32;57.05;95784.56;5028272;28;20058;-84
2024/01/11 03:18:57;;;;;;;18.63;12.30;;;;;;;-5.35;57.10;95789.44;5027181;28;20029;-84
2024/01/11 03:21:22;;;;;;;19.20;10.67;;;;;;;-5.37;57.01;95790.88;5028418;28;20403;-85
2024/01/11 03:23:48;;;;;;;25.33;13.40;;;;;;;-5.42;57.36;95778.41;5028767;28;20037;-84
2024/01/11 03:26:15;;;;;;;25.23;12.50;;;;;;;-5.36;57.43;95781.72;5028231;28;20191;-85
2024/01/11 03:28:41;;;;;;;29.57;13.73;;;;;;;-5.37;57.14;95783.59;5028753;28;20056;-85
2024/01/11 03:31:09;;;;;;;20.88;13.48;;;;;;;-5.40;57.07;95778.88;5029992;28;20489;-85
2024/01/11 03:33:34;;;;;;;19.55;12.82;;;;;;;-5.38;57.18;95781.25;5029748;28;20056;-85
2024/01/11 03:35:59;;;;;;;23.73;12.43;;;;;;;-5.35;57.05;95776.03;5029211;28;20017;-85
2024/01/11 03:38:25;;;;;;;26.30;14.17;;;;;;;-5.38;57.27;95778.56;5028129;28;20507;-87
2024/01/11 03:40:51;;;;;;;22.33;13.50;;;;;;;-5.41;57.04;95779.19;5028525;28;20156;-85
2024/01/11 03:43:18;;;;;;;29.60;13.73;;;;;;;-5.46;57.17;95776.66;5027531;28;20490;-85
2024/01/11 03:45:43;;;;;;;27.83;15.00;;;;;;;-5.41;56.90;95776.50;5027100;28;20056;-85
2024/01/11 03:48:08;;;;;;;25.50;14.53;;;;;;;-5.42;57.01;95773.03;5028004;28;20108;-85
2024/01/11 03:50:34;;;;;;;26.00;15.00;;;;;;;-5.36;56.93;95776.34;5027804;28;20034;-86
2024/01/11 03:52:59;;;;;;;25.97;14.80;;;;;;;-5.46;57.07;95769.41;5028289;28;20032;-85
2024/01/11 03:55:24;;;;;;;33.93;15.93;;;;;;;-5.44;57.13;95769.09;5027726;28;20465;-85
2024/01/11 03:57:51;;;;;;;30.77;15.40;;;;;;;-5.48;57.41;95766.25;5028148;28;20025;-85
2024/01/11 04:00:16;;;;;;;26.13;14.87;;;;;;;-5.50;57.01;95762.31;5027340;28;20031;-85
2024/01/11 04:02:42;;;;;;;26.73;13.50;;;;;;;-5.51;57.29;95764.19;5028224;28;20025;-84
2024/01/11 04:05:07;;;;;;;25.37;14.10;;;;;;;-5.50;56.99;95756.97;5027580;28;20029;-85
2024/01/11 04:07:33;;;;;;;28.77;14.77;;;;;;;-5.54;56.57;95758.69;5026433;28;20076;-86
2024/01/11 04:09:59;;;;;;;28.10;12.50;;;;;;;-5.59;57.04;95759.63;5027538;28;20111;-86
2024/01/11 04:12:24;;;;;;;23.13;10.67;;;;;;;-5.59;56.62;95762.31;5027252;28;20111;-85
2024/01/11 04:14:50;;;;;;;20.27;11.85;;;;;;;-5.65;57.03;95761.66;5028017;28;20030;-85
2024/01/11 04:17:15;;;;;;;19.97;11.73;;;;;;;-5.70;56.83;95751.09;5026907;28;20045;-86
2024/01/11 04:19:40;;;;;;;19.47;11.37;;;;;;;-5.71;56.99;95751.41;5027851;28;20098;-86
2024/01/11 04:22:06;;;;;;;21.10;11.67;;;;;;;-5.67;57.22;95745.13;5027168;28;20045;-86
2024/01/11 04:24:31;;;;;;;19.00;10.30;;;;;;;-5.67;57.21;95739.78;5027171;28;20726;-85
2024/01/11 04:26:56;;;;;;;21.83;10.73;;;;;;;-5.64;57.23;95746.38;5027469;28;20022;-85
2024/01/11 04:29:22;;;;;;;23.37;12.43;;;;;;;-5.69;57.26;95744.63;5026719;28;20026;-87
2024/01/11 04:31:47;;;;;;;25.30;12.53;;;;;;;-5.71;57.73;95743.38;5027592;28;20029;-85
2024/01/11 04:34:12;;;;;;;21.30;11.60;;;;;;;-5.70;57.82;95745.75;5026596;28;20029;-86
2024/01/11 04:36:41;;;;;;;25.30;13.53;;;;;;;-5.73;57.59;95740.25;5027112;28;20034;-85
2024/01/11 04:39:07;;;;;;;28.20;13.33;;;;;;;-5.72;57.62;95747.94;5026215;28;20140;-85
2024/01/11 04:41:35;;;;;;;30.80;16.73;;;;;;;-5.72;57.65;95753.31;5027148;28;20471;-86
2024/01/11 04:44:00;;;;;;;32.43;15.57;;;;;;;-5.72;57.84;95760.56;5028656;28;20112;-85
2024/01/11 04:46:26;;;;;;;30.20;16.63;;;;;;;-5.74;57.73;95760.06;5025953;28;20794;-86
2024/01/11 04:48:52;;;;;;;34.87;18.23;;;;;;;-5.75;57.49;95758.50;5027721;28;20033;-86
2024/01/11 04:51:18;;;;;;;36.53;16.77;;;;;;;-5.70;57.75;95761.81;5026429;28;20048;-85
2024/01/11 04:53:44;;;;;;;33.53;18.57;;;;;;;-5.69;57.68;95760.72;5026678;28;20423;-85
2024/01/11 04:56:11;;;;;;;30.10;17.07;;;;;;;-5.75;57.45;95761.97;5026083;28;20098;-86
2024/01/11 04:58:39;;;;;;;34.57;17.30;;;;;;;-5.70;57.43;95759.13;5026010;28;20026;-85
2024/01/11 05:01:05;;;;;;;31.17;15.80;;;;;;;-5.75;57.74;95750.47;5026173;28;20503;-86
2024/01/11 05:03:31;;;;;;;35.83;17.00;;;;;;;-5.72;57.90;95760.56;5025496;28;20030;-86
2024/01/11 05:05:57;;;;;;;30.10;16.60;;;;;;;-5.75;57.64;95764.63;5026784;28;20480;-86
2024/01/11 05:08:23;;;;;;;35.73;17.40;;;;;;;-5.71;57.43;95762.13;5027089;28;20025;-85
2024/01/11 05:10:49;;;;;;;35.30;17.07;;;;;;;-5.72;57.48;95757.88;5026979;28;20495;-86
2024/01/11 05:13:15;;;;;;;32.07;18.47;;;;;;;-5.71;57.28;95762.91;5028072;28;20030;-87
2024/01/11 05:15:40;;;;;;;30.13;15.60;;;;;;;-5.76;57.75;95751.56;5027540;28;20528;-85
2024/01/11 05:18:05;;;;;;;30.97;17.00;;;;;;;-5.77;57.71;95750.78;5024684;28;20017;-86
2024/01/11 05:20:31;;;;;;;35.83;16.77;;;;;;;-5.78;57.28;95749.22;5026485;28;20037;-86
2024/01/11 05:22:56;;;;;;;24.90;16.40;;;;;;;-5.79;57.31;95750.31;5026433;28;20033;-87
2024/01/11 05:25:22;;;;;;;25.97;15.97;;;;;;;-5.84;57.28;95726.34;5026194;28;20116;-86
2024/01/11 05:27:47;;;;;;;32.47;16.30;;;;;;;-5.82;57.22;95731.38;5027053;28;20105;-89
2024/01/11 05:30:13;;;;;;;31.40;17.20;;;;;;;-5.81;57.53;95731.06;5026274;28;20618;-89
2024/01/11 05:32:38;;;;;;;26.33;16.53;;;;;;;-5.90;57.75;95727.59;5027625;28;20060;-87
2024/01/11 05:35:04;;;;;;;22.77;15.00;;;;;;;-5.88;57.68;95728.06;5025929;28;20100;-86
2024/01/11 05:37:30;;;;;;;27.13;15.60;;;;;;;-5.85;57.45;95727.44;5026493;28;20057;-88
2024/01/11 05:39:56;;;;;;;29.37;15.57;;;;;;;-5.93;57.53;95723.69;5026342;28;20061;-87
2024/01/11 05:42:23;;;;;;;24.17;14.80;;;;;;;-5.87;57.20;95722.41;5026089;28;20082;-87
2024/01/11 05:44:48;;;;;;;27.43;15.67;;;;;;;-5.87;57.46;95721.59;5026723;28;20060;-86
2024/01/11 05:47:13;;;;;;;26.77;15.73;;;;;;;-5.85;57.89;95722.06;5026252;28;20029;-86
2024/01/11 05:49:40;;;;;;;29.13;16.77;;;;;;;-5.88;57.57;95725.41;5026572;28;20569;-89
2024/01/11 05:52:05;;;;;;;28.97;17.07;;;;;;;-5.87;57.78;95718.94;5025436;28;20029;-88
2024/01/11 05:54:31;;;;;;;24.97;15.67;;;;;;;-5.86;57.76;95717.81;5027571;28;20021;-86
2024/01/11 05:56:57;;;;;;;24.33;15.30;;;;;;;-5.87;57.66;95719.72;5026069;28;20059;-85
2024/01/11 05:59:23;;;;;;;26.87;15.70;;;;;;;-5.85;57.74;95714.03;5025698;28;20037;-86
2024/01/11 06:01:48;;;;;;;34.03;15.70;;;;;;;-5.87;57.69;95713.56;5025959;28;20096;-85
2024/01/11 06:04:14;;;;;;;24.53;17.27;;;;;;;-5.93;58.06;95712.97;5027518;28;20064;-87
2024/01/11 06:06:40;;;;;;;23.60;16.00;;;;;;;-5.83;57.63;95716.44;5026469;28;20038;-84
2024/01/11 06:09:05;;;;;;;26.27;16.67;;;;;;;-5.82;57.37;95713.44;5024140;28;20029;-84
2024/01/11 06:11:31;;;;;;;27.93;17.37;;;;;;;-5.88;57.89;95709.31;5025899;28;20453;-85
2024/01/11 06:13:57;;;;;;;27.33;17.53;;;;;;;-5.83;57.78;95713.75;5025353;28;20025;-86
2024/01/11 06:16:22;;;;;;;30.57;19.00;;;;;;;-5.90;57.72;95708.88;5025487;28;20151;-83
2024/01/11 06:18:48;;;;;;;29.47;19.87;;;;;;;-5.85;58.03;95713.25;5025491;28;20589;-86
2024/01/11 06:21:15;;;;;;;34.47;20.17;;;;;;;-5.88;57.66;95706.66;5026278;28;20072;-85
2024/01/11 06:23:40;;;;;;;34.73;20.77;;;;;;;-5.84;57.44;95707.59;5026181;28;20030;-85
2024/01/11 06:26:07;;;;;;;38.10;21.67;;;;;;;-5.82;57.56;95712.66;5027615;28;20032;-85
2024/01/11 06:28:32;;;;;;;38.47;20.33;;;;;;;-5.75;57.59;95707.59;5028958;28;20036;-85
2024/01/11 06:30:58;;;;;;;29.30;20.57;;;;;;;-5.78;57.67;95695.63;5028875;28;20029;-85
2024/01/11 06:33:23;;;;;;;36.30;20.87;;;;;;;-5.85;57.78;95695.28;5030392;28;20112;-85
2024/01/11 06:35:48;;;;;;;34.53;19.97;;;;;;;-5.87;58.21;95705.53;5033050;28;20056;-85
2024/01/11 06:38:14;;;;;;;35.77;21.80;;;;;;;-5.88;57.99;95698.63;5035172;28;20053;-84
2024/01/11 06:40:39;;;;;;;34.03;21.43;;;;;;;-5.82;58.19;95692.00;5036666;28;20025;-84
2024/01/11 06:43:04;;;;;;;38.83;22.07;;;;;;;-5.81;58.19;95690.91;5037941;28;20097;-86
2024/01/11 06:45:30;;;;;;;37.53;21.73;;;;;;;-5.77;58.00;95694.53;5034459;28;20048;-85
2024/01/11 06:47:56;;;;;;;40.30;22.13;;;;;;;-5.76;57.86;95690.75;5027678;28;20520;-78
2024/01/11 06:50:22;;;;;;;34.93;21.23;;;;;;;-5.70;58.21;95694.06;5028420;28;20048;-91
2024/01/11 06:52:47;;;;;;;39.00;24.50;;;;;;;-5.66;58.24;95689.66;5028032;28;20033;-86
2024/01/11 06:55:13;;;;;;;42.27;23.87;;;;;;;-5.64;58.24;95690.13;5029732;28;20029;-86
2024/01/11 06:57:38;;;;;;;43.37;24.13;;;;;;;-5.65;58.11;95694.69;5029267;28;20403;-84
2024/01/11 07:00:04;;;;;;;39.07;22.77;;;;;;;-5.59;58.07;95689.19;5029584;28;20411;-86
2024/01/11 07:02:29;;;;;;;35.27;21.83;;;;;;;-5.56;58.08;95685.84;5029696;28;20476;-81
2024/01/11 07:04:55;;;;;;;41.93;23.13;;;;;;;-5.48;58.28;95695.81;5027277;28;20526;-83
2024/01/11 07:07:20;;;;;;;35.03;21.50;;;;;;;-5.42;57.88;95702.56;5028797;28;20029;-82
2024/01/11 07:09:45;;;;;;;36.87;21.97;;;;;;;-5.41;57.82;95696.09;5028437;28;20626;-83
2024/01/11 07:12:11;;;;;;;33.03;20.80;;;;;;;-5.47;57.80;95675.94;5028722;28;20025;-83
2024/01/11 07:14:36;;;;;;;32.30;21.17;;;;;;;-5.26;57.42;95697.53;5028362;28;20025;-83
2024/01/11 07:17:02;;;;;;;36.87;19.73;;;;;;;-5.17;57.33;95690.25;5028425;28;20543;-82
2024/01/11 07:19:27;;;;;;;38.90;21.53;;;;;;;-5.12;56.87;95692.75;5028154;28;20025;-84
2024/01/11 07:21:53;;;;;;;42.83;22.43;;;;;;;-5.07;56.72;95693.38;5028580;28;20030;-81
2024/01/11 07:24:19;;;;;;;49.43;26.77;;;;;;;-4.99;56.93;95697.16;5028133;28;20029;-84
2024/01/11 07:26:44;;;;;;;40.13;25.13;;;;;;;-4.88;56.92;95684.97;5026834;28;20056;-83
2024/01/11 07:29:10;;;;;;;49.75;28.27;;;;;;;-4.72;56.60;95690.63;5028753;28;20472;-83
2024/01/11 07:31:35;;;;;;;41.50;22.58;;;;;;;-4.62;56.53;95686.81;5027897;28;20022;-83
2024/01/11 07:34:01;;;;;;;37.75;23.27;;;;;;;-4.47;55.93;95694.34;5028289;28;20369;-83
2024/01/11 07:36:26;;;;;;;39.53;21.48;;;;;;;-4.39;55.67;95693.50;5026495;28;20232;-84
2024/01/11 07:38:52;;;;;;;36.00;20.88;;;;;;;-4.32;55.66;95688.41;5028303;28;20048;-83
2024/01/11 07:41:18;;;;;;;31.20;18.83;;;;;;;-4.14;55.12;95686.41;5028242;28;20034;-84
2024/01/11 07:43:43;;;;;;;33.33;18.45;;;;;;;-4.02;54.89;95691.88;5047845;28;20040;-83
2024/01/11 07:46:09;;;;;;;35.85;18.58;;;;;;;-3.79;54.10;95694.25;5048406;28;20119;-82
2024/01/11 07:48:34;;;;;;;34.70;17.83;;;;;;;-3.62;53.79;95680.72;5047777;28;20025;-85
2024/01/11 07:51:00;;;;;;;33.25;15.80;;;;;;;-3.36;53.39;95685.88;5047930;28;20052;-83
2024/01/11 07:53:25;;;;;;;28.40;14.10;;;;;;;-3.09;52.28;95687.25;5047790;28;20123;-84
2024/01/11 07:55:52;;;;;;;22.88;14.07;;;;;;;-2.78;51.85;95673.31;5048273;28;20028;-82
2024/01/11 07:58:18;;;;;;;25.67;12.98;;;;;;;-2.36;50.82;95683.13;5046125;28;20044;-84
2024/01/11 08:00:44;;;;;;;19.13;12.73;;;;;;;-1.90;50.03;95676.47;5048145;28;20024;-83
2024/01/11 08:03:10;;;;;;;29.30;12.52;;;;;;;-1.11;47.63;95671.44;5047080;28;20026;-83
2024/01/11 08:05:35;;;;;;;19.05;11.80;;;;;;;0.22;45.44;95671.69;5046764;28;20052;-84
2024/01/11 08:08:03;;;;;;;17.58;11.45;;;;;;;1.90;41.51;95676.88;5047739;28;20029;-83
2024/01/11 08:10:30;;;;;;;19.38;13.13;;;;;;;3.12;38.24;95671.97;5046816;28;20056;-83
2024/01/11 08:12:55;;;;;;;20.25;13.55;;;;;;;4.42;36.22;95678.97;5046243;28;20056;-84
2024/01/11 08:15:21;;;;;;;25.88;16.50;;;;;;;5.29;34.16;95670.84;5047220;28;20604;-85
2024/01/11 08:17:47;;;;;;;26.67;16.15;;;;;;;6.26;32.41;95665.56;5047610;28;20075;-85
2024/01/11 08:20:12;;;;;;;25.52;16.42;;;;;;;7.10;30.96;95663.78;5047461;28;20025;-85
2024/01/11 08:22:45;;;;;;;23.23;16.02;;;;;;;7.92;29.43;95655.16;5047261;28;20031;-86
2024/01/11 08:25:11;;;;;;;26.45;17.02;;;;;;;8.62;28.28;95663.22;5047178;28;20046;-87
2024/01/11 08:27:36;;;;;;;23.98;16.77;;;;;;;9.26;27.35;95656.25;5046942;28;20025;-88
2024/01/11 08:30:04;;;;;;;24.02;16.80;;;;;;;9.89;26.56;95653.06;5047328;28;20060;-88
2024/01/11 08:32:30;;;;;;;24.92;15.05;;;;;;;10.35;25.89;95661.38;5047642;28;20031;-87
2024/01/11 08:34:57;;;;;;;23.42;15.93;;;;;;;10.79;25.03;95659.47;5047250;28;20112;-88
2024/01/11 08:37:22;;;;;;;27.35;19.13;;;;;;;11.32;24.61;95662.38;5046847;28;20024;-88
2024/01/11 08:39:48;;;;;;;26.67;18.90;;;;;;;11.49;24.10;95660.47;5047248;28;20029;-87
2024/01/11 08:42:15;;;;;;;26.70;19.15;;;;;;;12.09;23.63;95666.66;5045694;28;20348;-88
2024/01/11 08:44:44;;;;;;;25.63;19.80;;;;;;;12.74;22.78;95661.16;5045133;28;20057;-88
2024/01/11 08:47:09;;;;;;;31.20;21.02;;;;;;;12.93;22.55;95654.72;5046967;28;20052;-87
2024/01/11 08:49:41;;;;;;;27.40;20.38;;;;;;;13.66;21.84;95655.09;5046184;28;20064;-87
2024/01/11 08:52:07;;;;;;;29.02;19.58;;;;;;;14.00;21.35;95653.69;5047340;28;20094;-88
2024/01/11 08:54:33;;;;;;;26.73;19.17;;;;;;;14.34;20.87;95647.50;5045152;28;20021;-88
2024/01/11 08:56:58;;;;;;;25.73;19.92;;;;;;;15.03;20.27;95644.03;5047022;28;20481;-87
2024/01/11 08:59:25;;;;;;;27.92;21.25;;;;;;;15.27;20.11;95638.84;5048979;28;20096;-88
2024/01/11 09:01:51;;;;;;;29.75;20.13;;;;;;;15.75;19.48;95639.47;5046575;28;20049;-87
2024/01/11 09:04:17;;;;;;;28.88;20.42;;;;;;;16.01;19.12;95631.75;5046594;28;20067;-86
2024/01/11 09:06:43;;;;;;;26.13;19.40;;;;;;;16.27;18.96;95629.53;5045913;28;20742;-86
2024/01/11 09:09:10;;;;;;;28.60;20.50;;;;;;;16.84;18.40;95621.66;5046297;28;20096;-86
2024/01/11 09:11:36;;;;;;;29.70;19.75;;;;;;;17.51;17.64;95617.94;5046327;28;20481;-87
2024/01/11 09:14:02;;;;;;;27.80;18.90;;;;;;;17.85;17.49;95627.16;5046680;28;20085;-86
2024/01/11 09:16:28;;;;;;;25.40;17.98;;;;;;;18.22;17.21;95622.22;5045876;28;20060;-86
2024/01/11 09:18:54;;;;;;;24.48;17.52;;;;;;;18.60;16.47;95612.44;5046038;28;20037;-86
2024/01/11 09:21:19;;;;;;;26.55;19.48;;;;;;;19.10;16.50;95611.50;5046412;28;20029;-86
2024/01/11 09:23:45;;;;;;;26.92;18.30;;;;;;;19.36;15.94;95603.38;5046132;28;20432;-86
2024/01/11 09:26:10;;;;;;;23.10;18.08;;;;;;;19.84;15.77;95602.44;5045944;28;20076;-86
2024/01/11 09:28:35;;;;;;;22.05;17.98;;;;;;;20.11;15.60;95595.78;5045726;28;20102;-86
2024/01/11 09:31:01;;;;;;;26.27;17.95;;;;;;;20.20;15.54;95594.91;5046627;28;20021;-87
2024/01/11 09:33:27;;;;;;;23.83;18.10;;;;;;;20.50;15.14;95593.59;5045999;28;20028;-86
2024/01/11 09:35:54;;;;;;;23.05;18.25;;;;;;;20.70;15.17;95590.03;5046334;28;20025;-87
2024/01/11 09:38:20;;;;;;;24.20;17.75;;;;;;;20.72;15.07;95584.75;5046130;28;20249;-85
2024/01/11 09:40:45;;;;;;;25.30;17.88;;;;;;;21.14;14.93;95581.44;5045849;28;20111;-85
2024/01/11 09:43:11;;;;;;;25.85;18.40;;;;;;;21.60;14.41;95568.72;5044637;28;20100;-85
2024/01/11 09:45:37;;;;;;;24.08;19.23;;;;;;;21.55;14.36;95569.44;5027599;28;20511;-87
2024/01/11 09:48:05;;;;;;;24.58;18.67;;;;;;;21.89;14.11;95559.31;5045996;28;20029;-86
2024/01/11 09:50:31;;;;;;;23.50;18.20;;;;;;;22.12;13.95;95551.88;5044181;28;20025;-86
2024/01/11 09:52:57;;;;;;;23.45;17.02;;;;;;;22.39;13.83;95545.69;5044775;28;20043;-85
2024/01/11 09:55:22;;;;;;;26.00;18.92;;;;;;;22.29;13.82;95551.97;5044620;28;20037;-86
2024/01/11 09:57:48;;;;;;;29.95;23.65;;;;;;;22.67;13.72;95543.03;5045919;28;20036;-85
2024/01/11 10:00:18;;;;;;;33.42;24.05;;;;;;;22.45;13.64;95538.06;5044317;28;20118;-85
2024/01/11 10:02:45;;;;;;;33.55;24.75;;;;;;;22.77;13.64;95541.56;5045365;28;20051;-85
2024/01/11 10:05:14;;;;;;;28.70;23.27;;;;;;;22.74;13.50;95530.56;5045882;28;20033;-84
2024/01/11 10:07:39;;;;;;;27.25;20.88;;;;;;;23.16;13.49;95537.38;5045292;28;20557;-86
2024/01/11 10:10:07;;;;;;;26.10;21.45;;;;;;;23.18;13.26;95527.19;5045947;28;20029;-85
2024/01/11 10:12:34;;;;;;;25.58;19.48;;;;;;;23.47;13.09;95523.16;5045389;28;20527;-84
2024/01/11 10:15:09;;;;;;;24.60;20.55;;;;;;;23.51;13.17;95509.66;5045273;28;20025;-84
2024/01/11 10:17:42;;;;;;;24.88;20.10;;;;;;;23.75;13.02;95511.22;5045804;28;20029;-86
2024/01/11 10:20:10;;;;;;;27.33;19.77;;;;;;;23.64;12.77;95497.94;5045346;28;20032;-84
2024/01/11 10:22:36;;;;;;;26.65;18.48;;;;;;;23.88;13.00;95502.28;5045579;28;20021;-85
2024/01/11 10:25:12;;;;;;;28.88;19.75;;;;;;;24.22;12.58;95497.38;5045416;28;20036;-86
2024/01/11 10:27:45;;;;;;;25.63;19.00;;;;;;;24.62;12.57;95490.41;5047206;28;20422;-86
2024/01/11 10:30:12;;;;;;;;;;;;;;;23.96;12.91;95489.25;5050369;28;20044;-86
2024/01/11 10:32:38;;;;;;;23.05;16.77;;;;;;;24.08;12.90;95480.28;5049110;28;19962;-86
2024/01/11 10:35:04;;;;;;;26.80;18.85;;;;;;;24.08;12.77;95480.28;5049730;28;20048;-85
2024/01/11 10:37:32;;;;;;;23.85;19.08;;;;;;;24.18;12.94;95468.78;5048752;28;20043;-85
2024/01/11 10:39:58;;;;;;;22.92;18.15;;;;;;;24.42;12.70;95469.00;5047995;28;20403;-84
2024/01/11 10:42:24;;;;;;;22.25;16.65;;;;;;;24.75;12.34;95456.84;5051102;28;20284;-85
2024/01/11 10:44:55;;;;;;;24.85;16.63;;;;;;;24.74;12.31;95451.75;5047974;28;20040;-86
2024/01/11 10:47:22;;;;;;;20.58;14.52;;;;;;;24.69;12.16;95456.13;5049466;28;20029;-86
2024/01/11 10:49:50;;;;;;;18.52;13.95;;;;;;;24.55;12.41;95452.38;5047441;28;20519;-86
2024/01/11 10:52:17;;;;;;;22.27;16.10;;;;;;;23.83;13.14;95445.63;5048071;28;20033;-86
2024/01/11 10:54:43;;;;;;;25.92;17.35;;;;;;;23.43;13.15;95437.72;5047299;28;20052;-86
2024/01/11 10:57:08;;;;;;;23.00;13.82;;;;;;;23.03;13.41;95439.72;5049532;28;20059;-86
2024/01/11 10:59:36;;;;;;;20.33;14.98;;;;;;;22.76;13.85;95435.53;5047363;28;20128;-85
2024/01/11 11:02:06;;;;;;;22.30;14.63;;;;;;;22.30;13.78;95424.69;5049163;28;20393;-86
2024/01/11 11:04:32;;;;;;;25.67;15.10;;;;;;;22.31;14.16;95426.22;5049520;28;20025;-86
2024/01/11 11:07:00;;;;;;;22.90;15.27;;;;;;;22.25;14.51;95412.97;5030792;28;20025;-86
2024/01/11 11:09:25;;;;;;;22.80;14.02;;;;;;;21.85;14.80;95404.84;5048674;28;20032;-86
2024/01/11 11:11:53;;;;;;;20.08;14.23;;;;;;;22.30;14.56;95399.50;5046886;28;20162;-86